»·PEaware :: N143VT KSEE-KRAL

N143VT :: KSEE-KRAL

FLIGHT INFORMATION

Flight Status: Arrived
Operator: Privately registered:
United States
More flights under this callsign
Pilot: Anonymous 16492 (16492)
Aircraft: Unknown
(DA62)
More flights by this aircraft type
Origin: KSEE Gillespie
United States
Destination: KRAL Riverside Mun
United States
More flights between these airports :: More routes between these airports
Route: +
File this flight plan on PilotEdge
Remarks:
Altitude:
(Current/Filed)
0ft
Speed:
(Current/Filed)
0kts
Departed: 06-Sep-18 04:38 PM
Arrived: 06-Sep-18 05:23 PM
Distance/Time
Traveled:
71nm/0:45
Distance/Time
To Go:
Arrived

Flight Plot

Page will automatically refresh every two minutes.

Flight plan parsing failed; only flown route is shown


Map Options




Map Legend


Flown Route
Filed Route
Departure Airport
Arrival Airport
Navaid (VOR, NDB)
Fix

Horizontal Profiles

Position Reports

Time Latitude Longitude Heading Altitude Ground
Speed
06-Sep-18 16:25 32.824921 -116.968668 14 392ft 0kts
06-Sep-18 16:26 32.824921 -116.968668 14 392ft 0kts
06-Sep-18 16:27 32.824921 -116.968668 14 392ft 0kts
06-Sep-18 16:28 32.824921 -116.968668 14 392ft 0kts
06-Sep-18 16:29 32.824921 -116.968668 14 392ft 0kts
06-Sep-18 16:30 32.824921 -116.968668 14 392ft 0kts
06-Sep-18 16:31 32.824921 -116.968668 14 392ft 0kts
06-Sep-18 16:32 32.824921 -116.968668 14 392ft 0kts
06-Sep-18 16:33 32.824650 -116.967132 91 392ft 7kts
06-Sep-18 16:34 32.824781 -116.965096 102 392ft 5kts
06-Sep-18 16:35 32.825817 -116.964351 350 392ft 8kts
06-Sep-18 16:36 32.825894 -116.964377 338 392ft 0kts
06-Sep-18 16:37 32.825894 -116.964377 338 392ft 0kts
06-Sep-18 16:38 32.825894 -116.964377 338 392ft 0kts
06-Sep-18 16:39 32.826756 -116.966241 281 392ft 44kts
06-Sep-18 16:41 32.835351 -116.987794 347 863ft 89kts
06-Sep-18 16:42 32.844304 -116.960573 91 1392ft 109kts
06-Sep-18 16:43 32.843334 -116.924592 90 1980ft 122kts
06-Sep-18 16:44 32.842377 -116.882429 89 2986ft 127kts
06-Sep-18 16:45 32.845569 -116.839742 54 3953ft 133kts
06-Sep-18 16:46 32.877297 -116.819342 15 4858ft 137kts
06-Sep-18 16:47 32.918688 -116.805967 10 4608ft 152kts
06-Sep-18 16:48 32.958397 -116.792631 14 4516ft 143kts
06-Sep-18 16:49 32.995458 -116.778682 14 4518ft 138kts
06-Sep-18 16:50 33.029075 -116.786364 324 4520ft 129kts
06-Sep-18 16:51 33.060324 -116.807712 327 4519ft 130kts
06-Sep-18 16:52 33.092356 -116.827633 327 4519ft 130kts
06-Sep-18 16:53 33.123555 -116.846962 327 4517ft 130kts
06-Sep-18 16:54 33.155559 -116.866754 327 4518ft 130kts
06-Sep-18 16:55 33.183101 -116.883785 327 4517ft 130kts
06-Sep-18 16:56 33.212255 -116.901841 327 4517ft 130kts
06-Sep-18 16:57 33.244138 -116.921609 327 4516ft 128kts
06-Sep-18 16:58 33.277691 -116.937022 336 4515ft 129kts
06-Sep-18 16:59 33.311664 -116.950762 337 4650ft 131kts
06-Sep-18 17:00 33.346201 -116.964862 337 5144ft 132kts
06-Sep-18 17:01 33.380980 -116.979315 337 5623ft 135kts
06-Sep-18 17:02 33.416688 -116.994528 337 6099ft 137kts
06-Sep-18 17:03 33.452853 -117.010401 336 6484ft 143kts
06-Sep-18 17:04 33.486577 -117.033070 326 6475ft 137kts
06-Sep-18 17:05 33.516868 -117.059743 326 6472ft 134kts
06-Sep-18 17:06 33.546510 -117.086041 326 6518ft 132kts
06-Sep-18 17:07 33.576208 -117.112396 326 6523ft 133kts
06-Sep-18 17:08 33.605731 -117.139476 324 6527ft 134kts
06-Sep-18 17:09 33.633169 -117.169361 299 6531ft 138kts
06-Sep-18 17:10 33.648740 -117.211835 297 6527ft 139kts
06-Sep-18 17:11 33.664154 -117.254348 297 6527ft 139kts
06-Sep-18 17:12 33.679939 -117.296641 298 6526ft 139kts
06-Sep-18 17:13 33.695981 -117.338788 298 6526ft 139kts
06-Sep-18 17:14 33.712264 -117.379488 304 5870ft 134kts
06-Sep-18 17:15 33.736914 -117.409605 329 4726ft 126kts
06-Sep-18 17:16 33.764032 -117.413910 17 4374ft 93kts
06-Sep-18 17:17 33.788471 -117.401699 17 4351ft 111kts
06-Sep-18 17:18 33.820409 -117.387488 11 3713ft 128kts
06-Sep-18 17:19 33.852761 -117.392434 345 3496ft 105kts
06-Sep-18 17:20 33.883753 -117.398446 343 3010ft 119kts
06-Sep-18 17:21 33.918740 -117.399868 348 2400ft 125kts
06-Sep-18 17:22 33.952019 -117.392480 11 2146ft 102kts
06-Sep-18 17:23 33.957727 -117.403796 209 1675ft 106kts
06-Sep-18 17:24 33.949166 -117.427605 280 986ft 81kts
06-Sep-18 17:25 33.951298 -117.442159 253 820ft 0kts
06-Sep-18 17:26 33.951298 -117.442159 253 820ft 0kts
06-Sep-18 17:27 33.951129 -117.443818 199 820ft 9kts
06-Sep-18 17:28 33.950634 -117.443248 115 820ft 0kts
06-Sep-18 17:29 33.950634 -117.443248 115 820ft 0kts
06-Sep-18 17:30 33.950634 -117.443248 115 820ft 0kts
06-Sep-18 17:31 33.950634 -117.443248 115 820ft 0kts
06-Sep-18 17:32 33.950634 -117.443248 115 820ft 0kts
06-Sep-18 17:33 33.950634 -117.443248 115 820ft 0kts
06-Sep-18 17:34 33.950634 -117.443248 115 820ft 0kts
06-Sep-18 17:35 33.950634 -117.443248 115 820ft 0kts
06-Sep-18 17:36 33.950634 -117.443248 115 820ft 0kts
06-Sep-18 17:37 33.950634 -117.443248 115 820ft 0kts
06-Sep-18 17:38 33.950755 -117.443013 23 820ft 0kts
06-Sep-18 17:39 33.950853 -117.442261 100 820ft 8kts

Navigation Log

Ident Type
Flight plan parsing failed, navigation log unavailable